Time;durP1;ratioP1;P1;durP2;ratioP2;P2;SDS_P1;SDS_P2;PMS_P1;PMS_P2;Temp;Humidity;BMP_temperature;BMP_pressure;BME280_temperature;BME280_humidity;BME280_pressure;Samples;Min_cycle;Max_cycle;Signal;HPM_P1;HPM_P2
2021/12/12 00:01:26;;;;;;;;;;;;;;;-1.97;100.00;99937.53;5006080;28;20003;-83
2021/12/12 00:03:54;;;;;;;;;;;;;;;-2.04;100.00;99930.03;5008287;28;19924;-83
2021/12/12 00:06:22;;;;;;;;;;;;;;;-2.02;100.00;99933.41;5016836;28;19988;-83
2021/12/12 00:08:49;;;;;;;;;;;;;;;-2.02;100.00;99936.00;5003966;28;20404;-83
2021/12/12 00:11:16;;;;;;;;;;;;;;;-2.07;100.00;99936.19;5007556;28;19956;-83
2021/12/12 00:13:44;;;;;;;;;;;;;;;-2.20;100.00;99951.28;5004153;28;19921;-83
2021/12/12 00:16:10;;;;;;;;;;;;;;;-2.26;100.00;99951.47;5003883;28;19917;-83
2021/12/12 00:18:36;;;;;;;;;;;;;;;-2.41;100.00;99957.16;5005207;28;19924;-83
2021/12/12 00:21:03;;;;;;;;;;;;;;;-2.39;100.00;99954.53;5005059;28;19917;-83
2021/12/12 00:23:28;;;;;;;;;;;;;;;-2.41;100.00;99953.72;5001619;28;19917;-83
2021/12/12 00:25:56;;;;;;;;;;;;;;;-2.42;100.00;99954.66;5003658;28;20306;-83
2021/12/12 00:28:22;;;;;;;;;;;;;;;-2.35;100.00;99956.94;5002923;28;19924;-82
2021/12/12 00:30:50;;;;;;;;;;;;;;;-2.25;100.00;99958.34;5001522;28;20016;-84
2021/12/12 00:33:16;;;;;;;;;;;;;;;-2.16;100.00;99963.19;5002216;28;19932;-84
2021/12/12 00:35:42;;;;;;;;;;;;;;;-2.14;100.00;99965.72;5003486;28;20424;-83
2021/12/12 00:38:10;;;;;;;;;;;;;;;-2.21;100.00;99975.44;5000842;28;20017;-82
2021/12/12 00:40:38;;;;;;;;;;;;;;;-2.25;100.00;99966.09;5000894;28;20266;-83
2021/12/12 00:43:06;;;;;;;;;;;;;;;-2.37;100.00;99963.09;5013352;28;20012;-82
2021/12/12 00:45:32;;;;;;;;;;;;;;;-2.41;100.00;99967.50;5016819;28;19944;-83
2021/12/12 00:47:58;;;;;;;;;;;;;;;-2.40;100.00;99966.59;5010443;28;19913;-83
2021/12/12 00:50:33;;;;;;;;;;;;;;;-2.33;100.00;99960.34;5002234;28;19917;-83
2021/12/12 00:52:59;;;;;;;;;;;;;;;-2.22;100.00;99967.72;5004184;28;19962;-83
2021/12/12 00:55:24;;;;;;;;;;;;;;;-2.16;100.00;99960.59;5001290;28;19964;-82
2021/12/12 00:57:53;;;;;;;;;;;;;;;-2.10;100.00;99962.97;5002127;28;19925;-83
2021/12/12 01:00:22;;;;;;;;;;;;;;;-2.06;100.00;99967.13;5002219;28;20007;-83
2021/12/12 01:02:48;;;;;;;;;;;;;;;-2.07;100.00;99968.06;5000544;28;19918;-83
2021/12/12 01:05:13;;;;;;;;;;;;;;;-2.11;100.00;99966.44;5002799;28;20348;-84
2021/12/12 01:07:40;;;;;;;;;;;;;;;-2.11;100.00;99976.78;5001070;28;20004;-82
2021/12/12 01:10:12;;;;;;;;;;;;;;;-2.08;100.00;99979.28;5001709;28;20478;-81
2021/12/12 01:12:38;;;;;;;;;;;;;;;-2.00;100.00;99983.34;5003229;28;20011;-83
2021/12/12 01:15:10;;;;;;;;;;;;;;;-1.96;100.00;99990.09;5000036;28;19918;-83
2021/12/12 01:17:39;;;;;;;;;;;;;;;-1.94;100.00;99990.91;4996102;28;19918;-81
2021/12/12 01:20:10;;;;;;;;;;;;;;;-1.95;100.00;99990.06;4996435;28;20286;-82
2021/12/12 01:22:37;;;;;;;;;;;;;;;-1.95;100.00;99982.28;5004431;28;19917;-83
2021/12/12 01:25:18;;;;;;;;;;;;;;;-2.00;100.00;99985.94;5002026;28;19948;-83
2021/12/12 01:27:44;;;;;;;;;;;;;;;-2.24;100.00;99985.03;4998457;28;20369;-83
2021/12/12 01:30:11;;;;;;;;;;;;;;;-2.44;100.00;99993.47;5002603;28;19987;-81
2021/12/12 01:32:37;;;;;;;;;;;;;;;-2.61;100.00;99988.00;5000185;28;19917;-83
2021/12/12 01:35:06;;;;;;;;;;;;;;;-2.71;100.00;99990.03;5003088;28;20307;-83
2021/12/12 01:37:39;;;;;;;;;;;;;;;-2.62;100.00;99988.91;4996356;28;20009;-83
2021/12/12 01:40:10;;;;;;;;;;;;;;;-2.61;100.00;99995.75;4998578;28;20796;-83
2021/12/12 01:42:40;;;;;;;;;;;;;;;-2.57;100.00;100002.50;4996362;28;19922;-83
2021/12/12 01:45:32;;;;;;;;;;;;;;;-2.57;100.00;100000.75;4996378;28;19918;-83
2021/12/12 01:48:00;;;;;;;;;;;;;;;-2.69;100.00;99997.72;4995664;28;19918;-83
2021/12/12 01:50:28;;;;;;;;;;;;;;;-2.72;100.00;99998.69;5002689;28;20419;-83
2021/12/12 01:52:54;;;;;;;;;;;;;;;-2.74;100.00;100010.81;5000492;28;20390;-83
2021/12/12 01:55:25;;;;;;;;;;;;;;;-2.73;100.00;100016.81;4998772;28;19918;-83
2021/12/12 01:57:51;;;;;;;;;;;;;;;-2.74;100.00;100015.13;4998638;28;20385;-83
2021/12/12 02:00:21;;;;;;;;;;;;;;;-2.79;100.00;100022.16;5000001;28;20005;-82
2021/12/12 02:02:46;;;;;;;;;;;;;;;-2.77;100.00;100021.25;5001153;28;19918;-82
2021/12/12 02:05:14;;;;;;;;;;;;;;;-2.83;100.00;100025.75;5000821;28;19929;-83
2021/12/12 02:07:42;;;;;;;;;;;;;;;-2.81;100.00;100018.78;5003302;28;20393;-82
2021/12/12 02:10:10;;;;;;;;;;;;;;;-2.74;100.00;100025.44;5000201;28;19917;-82
2021/12/12 02:12:36;;;;;;;;;;;;;;;-2.68;100.00;100030.41;5003455;28;20301;-82
2021/12/12 02:15:01;;;;;;;;;;;;;;;-2.65;100.00;100025.19;4999491;28;19921;-83
2021/12/12 02:17:33;;;;;;;;;;;;;;;-2.76;100.00;100027.22;5001654;28;19918;-84
2021/12/12 02:20:23;;;;;;;;;;;;;;;-2.77;100.00;100023.81;5000069;28;19964;-83
2021/12/12 02:36:30;;;;;;;;;;;;;;;-2.71;100.00;100015.03;5004117;28;19929;-82
2021/12/12 02:38:56;;;;;;;;;;;;;;;-2.74;100.00;100023.72;5006082;28;19925;-82
2021/12/12 02:41:23;;;;;;;;;;;;;;;-2.74;100.00;100025.44;5011289;28;19928;-82
2021/12/12 02:43:51;;;;;;;;;;;;;;;-2.74;100.00;100018.53;5007362;28;19925;-83
2021/12/12 02:46:20;;;;;;;;;;;;;;;-2.75;100.00;100023.75;5005501;28;19918;-83
2021/12/12 02:48:46;;;;;;;;;;;;;;;-2.77;100.00;100017.81;5005313;28;19920;-83
2021/12/12 02:51:15;;;;;;;;;;;;;;;-2.84;100.00;100021.47;5005293;28;20137;-83
2021/12/12 02:53:46;;;;;;;;;;;;;;;-2.82;100.00;100017.09;5013115;28;20369;-83
2021/12/12 02:56:15;;;;;;;;;;;;;;;-2.79;100.00;100022.16;5009421;28;19924;-84
2021/12/12 02:58:41;;;;;;;;;;;;;;;-2.76;100.00;100024.63;5007983;28;19940;-82
2021/12/12 03:01:25;;;;;;;;;;;;;;;-2.76;100.00;100027.22;5003492;28;19918;-83
2021/12/12 03:03:52;;;;;;;;;;;;;;;-2.78;100.00;100029.03;5011026;28;19924;-82
2021/12/12 03:06:19;;;;;;;;;;;;;;;-2.73;100.00;100032.31;5012067;28;19925;-82
2021/12/12 03:08:46;;;;;;;;;;;;;;;-2.72;100.00;100036.59;5011668;28;20007;-82
2021/12/12 03:11:11;;;;;;;;;;;;;;;-2.83;100.00;100036.09;5012026;28;19917;-82
2021/12/12 03:13:37;;;;;;;;;;;;;;;-2.91;100.00;100039.75;5014332;28;19917;-82
2021/12/12 03:16:04;;;;;;;;;;;;;;;-3.02;100.00;100046.97;5004740;28;20026;-82
2021/12/12 03:18:31;;;;;;;;;;;;;;;-3.16;100.00;100053.41;5005829;28;20348;-82
2021/12/12 03:21:01;;;;;;;;;;;;;;;-3.22;100.00;100054.44;5003340;28;19924;-82
2021/12/12 03:23:26;;;;;;;;;;;;;;;-3.16;100.00;100056.00;5005309;28;19925;-82
2021/12/12 03:25:54;;;;;;;;;;;;;;;-3.09;100.00;100060.94;5003659;28;19921;-82
2021/12/12 03:28:21;;;;;;;;;;;;;;;-3.02;100.00;100046.97;5009694;28;19914;-82
2021/12/12 03:30:47;;;;;;;;;;;;;;;-3.03;100.00;100049.59;5011385;28;19980;-81
2021/12/12 03:33:13;;;;;;;;;;;;;;;-3.12;100.00;100053.28;5008188;28;19918;-81
2021/12/12 03:35:38;;;;;;;;;;;;;;;-3.15;100.00;100050.81;5010465;28;19920;-80
2021/12/12 03:38:04;;;;;;;;;;;;;;;-3.17;100.00;100044.81;5006671;28;20311;-81
2021/12/12 03:40:33;;;;;;;;;;;;;;;-3.15;100.00;100055.97;5011205;28;19968;-82
2021/12/12 03:42:59;;;;;;;;;;;;;;;-3.08;100.00;100056.63;5006172;28;19917;-82
2021/12/12 03:45:26;;;;;;;;;;;;;;;-2.99;100.00;100059.78;5004857;28;19968;-82
2021/12/12 03:48:12;;;;;;;;;;;;;;;-2.94;100.00;100054.47;5002850;28;19944;-83
2021/12/12 03:50:39;;;;;;;;;;;;;;;-2.96;100.00;100070.03;5004663;28;20009;-79
2021/12/12 03:53:05;;;;;;;;;;;;;;;-2.94;100.00;100059.63;5001290;28;19997;-82
2021/12/12 03:55:30;;;;;;;;;;;;;;;-3.00;100.00;100076.16;5004966;28;19980;-82
2021/12/12 03:57:58;;;;;;;;;;;;;;;-3.12;100.00;100073.94;5001986;28;19925;-82
2021/12/12 04:00:29;;;;;;;;;;;;;;;-3.20;100.00;100078.47;5004081;28;19975;-82
2021/12/12 04:02:54;;;;;;;;;;;;;;;-3.25;100.00;100075.19;5002044;28;19973;-82
2021/12/12 04:05:20;;;;;;;;;;;;;;;-3.32;100.00;100081.41;5001737;28;19918;-82
2021/12/12 04:07:46;;;;;;;;;;;;;;;-3.36;100.00;100083.22;5003519;28;19918;-82
2021/12/12 04:10:13;;;;;;;;;;;;;;;-3.37;100.00;100091.03;5001399;28;19917;-81
2021/12/12 04:12:39;;;;;;;;;;;;;;;-3.41;100.00;100089.41;5001925;28;20333;-82
2021/12/12 04:15:05;;;;;;;;;;;;;;;-3.44;100.00;100094.66;5004743;28;19917;-81
2021/12/12 04:17:31;;;;;;;;;;;;;;;-3.42;100.00;100093.75;5007696;28;19918;-81
2021/12/12 04:19:57;;;;;;;;;;;;;;;-3.43;100.00;100101.53;5013209;28;19971;-81
2021/12/12 04:22:23;;;;;;;;;;;;;;;-3.42;100.00;100110.97;5007302;28;19917;-82
2021/12/12 04:24:54;;;;;;;;;;;;;;;-3.37;100.00;100106.50;5004510;28;20004;-81
2021/12/12 04:27:21;;;;;;;;;;;;;;;-3.37;100.00;100112.53;5002666;28;19921;-82
2021/12/12 04:29:48;;;;;;;;;;;;;;;-3.36;100.00;100108.22;5002607;28;19920;-82
2021/12/12 04:32:15;;;;;;;;;;;;;;;-3.31;100.00;100106.34;5003321;28;20373;-83
2021/12/12 04:34:44;;;;;;;;;;;;;;;-3.33;100.00;100102.94;5001147;28;19914;-81
2021/12/12 04:37:09;;;;;;;;;;;;;;;-3.37;100.00;100112.53;5003529;28;20360;-81
2021/12/12 04:39:37;;;;;;;;;;;;;;;-3.54;100.00;100121.59;5002980;28;20016;-82
2021/12/12 04:42:10;;;;;;;;;;;;;;;-3.55;100.00;100132.81;4995346;28;20297;-82
2021/12/12 04:44:38;;;;;;;;;;;;;;;-3.51;100.00;100144.72;4997335;28;19936;-82
2021/12/12 04:50:03;;;;;;;;;;;;;;;-3.58;100.00;100138.03;4996223;28;19921;-82
2021/12/12 04:52:37;;;;;;;;;;;;;;;-3.66;100.00;100139.97;5001683;28;19966;-81
2021/12/12 04:55:02;;;;;;;;;;;;;;;-3.68;100.00;100137.44;4995152;28;19968;-81
2021/12/12 04:57:34;;;;;;;;;;;;;;;-3.62;100.00;100141.59;5003351;28;20033;-81
2021/12/12 05:00:06;;;;;;;;;;;;;;;-3.57;100.00;100156.06;5000380;28;19936;-82
2021/12/12 05:02:32;;;;;;;;;;;;;;;-3.55;100.00;100156.03;5003974;28;19941;-82
2021/12/12 05:05:09;;;;;;;;;;;;;;;-3.66;100.00;100155.47;5000257;28;19918;-82
2021/12/12 05:07:40;;;;;;;;;;;;;;;-3.72;100.00;100156.47;4996920;28;19972;-82
2021/12/12 05:10:07;;;;;;;;;;;;;;;-3.80;100.00;100154.06;5001763;28;20004;-82
2021/12/12 05:12:46;;;;;;;;;;;;;;;-3.80;100.00;100164.38;5004049;28;19925;-81
2021/12/12 05:15:12;;;;;;;;;;;;;;;-3.75;100.00;100170.28;5001224;28;19977;-81
2021/12/12 05:17:43;;;;;;;;;;;;;;;-3.74;100.00;100164.22;5006617;28;20003;-82
2021/12/12 05:20:13;;;;;;;;;;;;;;;-3.68;100.00;100162.38;5003319;28;19937;-81
2021/12/12 05:22:47;;;;;;;;;;;;;;;-3.72;100.00;100166.78;5000030;28;20390;-81
2021/12/12 05:25:25;;;;;;;;;;;;;;;-3.71;100.00;100171.03;5000965;28;19928;-81
2021/12/12 05:27:52;;;;;;;;;;;;;;;-3.77;100.00;100178.94;4999703;28;19917;-82
2021/12/12 05:30:20;;;;;;;;;;;;;;;-3.85;100.00;100179.13;5001917;28;20017;-81
2021/12/12 05:32:46;;;;;;;;;;;;;;;-3.89;100.00;100180.09;5001879;28;19917;-82
2021/12/12 05:35:13;;;;;;;;;;;;;;;-3.90;100.00;100178.41;5000419;28;20008;-81
2021/12/12 05:37:39;;;;;;;;;;;;;;;-3.92;100.00;100184.47;5002739;28;19960;-81
2021/12/12 05:40:07;;;;;;;;;;;;;;;-3.88;100.00;100192.06;4999294;28;20036;-81
2021/12/12 05:42:32;;;;;;;;;;;;;;;-3.86;100.00;100198.06;5003022;28;19968;-81
2021/12/12 05:44:59;;;;;;;;;;;;;;;-3.87;100.00;100198.94;5000826;28;20294;-81
2021/12/12 05:47:25;;;;;;;;;;;;;;;-3.83;100.00;100199.72;5002709;28;19918;-81
2021/12/12 05:49:51;;;;;;;;;;;;;;;-3.82;100.00;100202.25;5000911;28;20282;-80
2021/12/12 05:52:19;;;;;;;;;;;;;;;-3.82;100.00;100207.41;5001066;28;19917;-81
2021/12/12 05:54:46;;;;;;;;;;;;;;;-3.79;100.00;100212.50;5001463;28;19917;-81
2021/12/12 05:57:16;;;;;;;;;;;;;;;-3.75;100.00;100203.78;5000396;28;19925;-81
2021/12/12 05:59:41;;;;;;;;;;;;;;;-3.69;100.00;100214.84;5002708;28;20597;-81
2021/12/12 06:02:07;;;;;;;;;;;;;;;-3.60;100.00;100217.22;5001053;28;20016;-81
2021/12/12 06:04:33;;;;;;;;;;;;;;;-3.55;100.00;100216.19;5009452;28;19928;-81
2021/12/12 06:07:02;;;;;;;;;;;;;;;-3.55;100.00;100216.19;5007837;28;20381;-81
2021/12/12 06:09:28;;;;;;;;;;;;;;;-3.57;100.00;100222.28;5001689;28;19918;-81
2021/12/12 06:11:53;;;;;;;;;;;;;;;-3.55;100.00;100236.00;5005378;28;19918;-82
2021/12/12 06:14:20;;;;;;;;;;;;;;;-3.55;100.00;100233.41;5006979;28;20275;-81
2021/12/12 06:16:46;;;;;;;;;;;;;;;-3.58;100.00;100233.47;5005000;28;20000;-81
2021/12/12 06:19:20;;;;;;;;;;;;;;;-3.59;100.00;100247.28;5004105;28;19975;-80
2021/12/12 06:21:48;;;;;;;;;;;;;;;-3.58;100.00;100247.22;5005140;28;19924;-81
2021/12/12 06:24:14;;;;;;;;;;;;;;;-3.56;100.00;100254.94;5003090;28;20351;-80
2021/12/12 06:26:39;;;;;;;;;;;;;;;-3.72;100.00;100260.47;5003412;28;19924;-81
2021/12/12 06:29:05;;;;;;;;;;;;;;;-3.87;100.00;100260.81;5005964;28;19957;-81
2021/12/12 06:31:31;;;;;;;;;;;;;;;-4.00;100.00;100261.13;5001652;28;19941;-82
2021/12/12 06:33:56;;;;;;;;;;;;;;;-4.05;100.00;100266.38;5005251;28;20254;-82
2021/12/12 06:36:22;;;;;;;;;;;;;;;-4.06;100.00;100254.38;5004187;28;19921;-82
2021/12/12 06:38:49;;;;;;;;;;;;;;;-4.00;100.00;100263.69;5003504;28;20324;-82
2021/12/12 06:41:14;;;;;;;;;;;;;;;-4.00;100.00;100267.13;5003513;28;19936;-80
2021/12/12 06:43:42;;;;;;;;;;;;;;;-3.95;100.00;100267.91;5005377;28;20366;-82
2021/12/12 06:46:08;;;;;;;;;;;;;;;-3.90;100.00;100268.63;5002607;28;19921;-79
2021/12/12 06:48:34;;;;;;;;;;;;;;;-3.84;100.00;100270.22;5006112;28;20289;-82
2021/12/12 06:51:01;;;;;;;;;;;;;;;-3.87;100.00;100289.19;5001189;28;19924;-82
2021/12/12 06:53:28;;;;;;;;;;;;;;;-3.88;100.00;100287.47;5006124;28;19925;-81
2021/12/12 06:55:55;;;;;;;;;;;;;;;-3.97;100.00;100282.53;5002814;28;19924;-81
2021/12/12 06:58:21;;;;;;;;;;;;;;;-3.94;100.00;100282.47;5004412;28;19924;-81
2021/12/12 07:00:49;;;;;;;;;;;;;;;-3.93;100.00;100291.91;5002721;28;19917;-80
2021/12/12 07:03:16;;;;;;;;;;;;;;;-3.89;100.00;100296.13;5003396;28;20378;-82
2021/12/12 07:05:42;;;;;;;;;;;;;;;-3.85;100.00;100305.47;5004585;28;19924;-82
2021/12/12 07:08:07;;;;;;;;;;;;;;;-3.89;100.00;100303.84;5002800;28;19921;-87
2021/12/12 07:10:33;;;;;;;;;;;;;;;-3.86;100.00;100302.91;5006401;28;20424;-83
2021/12/12 07:12:59;;;;;;;;;;;;;;;-3.80;100.00;100303.63;5004697;28;19960;-82
2021/12/12 07:15:37;;;;;;;;;;;;;;;-3.72;100.00;100300.88;5000814;28;20081;-84
2021/12/12 07:18:06;;;;;;;;;;;;;;;-3.71;100.00;100307.72;5005754;28;19952;-84
2021/12/12 07:20:31;;;;;;;;;;;;;;;-3.59;100.00;100322.09;4998714;28;19918;-85
2021/12/12 07:22:57;;;;;;;;;;;;;;;-3.52;100.00;100315.88;5005064;28;20013;-84
2021/12/12 07:25:23;;;;;;;;;;;;;;;-3.56;100.00;100322.00;5005535;28;20338;-79
2021/12/12 07:27:52;;;;;;;;;;;;;;;-3.60;100.00;100321.25;5006629;28;19921;-85
2021/12/12 07:30:18;;;;;;;;;;;;;;;-3.52;100.00;100314.16;5003392;28;19937;-81
2021/12/12 07:32:44;;;;;;;;;;;;;;;-3.46;100.00;100323.47;4986318;28;19917;-78
2021/12/12 07:35:11;;;;;;;;;;;;;;;-3.42;100.00;100320.81;5001755;28;20374;-82
2021/12/12 07:37:37;;;;;;;;;;;;;;;-3.38;100.00;100332.75;5005512;28;19917;-86
2021/12/12 07:40:04;;;;;;;;;;;;;;;-3.34;100.00;100338.66;5001494;28;20021;-81
2021/12/12 07:42:30;;;;;;;;;;;;;;;-3.31;100.00;100328.28;5004824;28;19940;-78
2021/12/12 07:44:55;;;;;;;;;;;;;;;-3.24;100.00;100340.16;5002061;28;19968;-79
2021/12/12 07:47:21;;;;;;;;;;;;;;;-3.16;100.00;100353.69;5003257;28;20003;-79
2021/12/12 07:49:47;;;;;;;;;;;;;;;-3.10;100.00;100358.72;5001589;28;20370;-80
2021/12/12 07:52:16;;;;;;;;;;;;;;;-3.13;100.00;100371.72;5001925;28;20413;-80
2021/12/12 07:54:43;;;;;;;;;;;;;;;-3.11;100.00;100367.34;5004057;28;20448;-79
2021/12/12 07:57:09;;;;;;;;;;;;;;;-3.04;100.00;100362.88;5004248;28;19971;-79
2021/12/12 07:59:36;;;;;;;;;;;;;;;-2.97;100.00;100360.13;5000999;28;19917;-79
2021/12/12 08:02:02;;;;;;;;;;;;;;;-3.01;100.00;100358.50;5004819;28;19917;-79
2021/12/12 08:04:28;;;;;;;;;;;;;;;-3.03;100.00;100364.59;5001434;28;20004;-81
2021/12/12 08:06:54;;;;;;;;;;;;;;;-3.08;100.00;100359.53;5003229;28;20370;-81
2021/12/12 08:09:21;;;;;;;;;;;;;;;-3.09;100.00;100362.16;4984869;28;20256;-81
2021/12/12 08:11:46;;;;;;;;;;;;;;;-3.05;100.00;100361.19;5002686;28;20489;-81
2021/12/12 08:14:17;;;;;;;;;;;;;;;-3.04;100.00;100363.72;5001181;28;19925;-81
2021/12/12 08:16:44;;;;;;;;;;;;;;;-3.03;100.00;100369.75;5002929;28;19963;-80
2021/12/12 08:19:10;;;;;;;;;;;;;;;-2.95;100.00;100373.84;5000605;28;19921;-80
2021/12/12 08:21:36;;;;;;;;;;;;;;;-2.86;100.00;100377.06;5004069;28;20437;-80
2021/12/12 08:24:09;;;;;;;;;;;;;;;-2.86;100.00;100374.47;5000239;28;20374;-82
2021/12/12 08:26:36;;;;;;;;;;;;;;;-2.95;100.00;100376.44;4997308;28;19918;-81
2021/12/12 08:29:04;;;;;;;;;;;;;;;-3.00;100.00;100386.00;5003908;28;19917;-82
2021/12/12 08:31:29;;;;;;;;;;;;;;;-2.85;100.00;100386.50;5000264;28;19964;-81
2021/12/12 08:33:55;;;;;;;;;;;;;;;-2.78;100.00;100393.22;5004714;28;19917;-80
2021/12/12 08:36:20;;;;;;;;;;;;;;;-2.66;100.00;100403.25;5002954;28;19918;-81
2021/12/12 08:38:46;;;;;;;;;;;;;;;-2.54;100.00;100411.53;5003637;28;19918;-80
2021/12/12 08:41:12;;;;;;;;;;;;;;;-2.43;100.00;100415.56;5002668;28;19922;-81
2021/12/12 08:43:37;;;;;;;;;;;;;;;-2.33;100.00;100425.59;5005015;28;19944;-81
2021/12/12 08:46:07;;;;;;;;;;;;;;;-2.21;100.00;100419.25;5000518;28;20041;-81
2021/12/12 08:48:36;;;;;;;;;;;;;;;-2.09;100.00;100424.94;5007558;28;19921;-80
2021/12/12 08:51:04;;;;;;;;;;;;;;;-1.95;100.00;100426.31;4995784;28;19971;-81
2021/12/12 08:53:30;;;;;;;;;;;;;;;-1.84;100.00;100435.44;5005964;28;19917;-81
2021/12/12 08:55:57;;;;;;;;;;;;;;;-1.87;100.00;100439.84;5003655;28;19924;-81
2021/12/12 08:58:25;;;;;;;;;;;;;;;-1.90;100.00;100439.94;5003862;28;19968;-81
2021/12/12 09:00:53;;;;;;;;;;;;;;;-1.90;100.00;100440.81;5004032;28;19925;-81
2021/12/12 09:03:21;;;;;;;;;;;;;;;-1.87;100.00;100435.53;5006858;28;19924;-79
2021/12/12 09:05:48;;;;;;;;;;;;;;;-1.88;100.00;100443.31;5005945;28;19944;-81
2021/12/12 09:08:23;;;;;;;;;;;;;;;-1.89;100.00;100441.66;5004538;28;19917;-80
2021/12/12 09:11:01;;;;;;;;;;;;;;;-1.81;100.00;100444.84;5005710;28;19922;-82
2021/12/12 09:13:29;;;;;;;;;;;;;;;-1.64;100.00;100447.78;5005832;28;19926;-80
2021/12/12 09:16:07;;;;;;;;;;;;;;;-1.46;100.00;100455.03;5003964;28;19917;-80
2021/12/12 09:18:41;;;;;;;;;;;;;;;-1.30;100.00;100453.69;5006768;28;19968;-81
2021/12/12 09:21:13;;;;;;;;;;;;;;;-1.22;100.00;100450.84;4999240;28;19922;-81
2021/12/12 09:23:49;;;;;;;;;;;;;;;-1.07;100.00;100454.72;5006210;28;20046;-80
2021/12/12 09:26:18;;;;;;;;;;;;;;;-0.93;100.00;100452.50;5003404;28;20008;-81
2021/12/12 09:28:57;;;;;;;;;;;;;;;-0.77;100.00;100464.09;5005680;28;19914;-81
2021/12/12 09:31:28;;;;;;;;;;;;;;;-0.61;100.00;100459.25;5003181;28;19929;-80
2021/12/12 09:33:59;;;;;;;;;;;;;;;-0.48;100.00;100451.03;5003626;28;19914;-80
2021/12/12 09:36:24;;;;;;;;;;;;;;;-0.30;100.00;100448.72;5005647;28;19928;-81
2021/12/12 09:38:58;;;;;;;;;;;;;;;-0.18;100.00;100450.88;4999248;28;19914;-80
2021/12/12 09:41:42;;;;;;;;;;;;;;;-0.04;100.00;100457.25;5001402;28;19921;-79
2021/12/12 09:44:26;;;;;;;;;;;;;;;0.08;100.00;100455.97;4997925;28;20248;-81
2021/12/12 09:47:26;;;;;;;;;;;;;;;0.20;100.00;100457.28;5003262;28;19921;-80
2021/12/12 09:53:10;;;;;;;;;;;;;;;0.40;100.00;100453.06;5004229;28;20357;-81
2021/12/12 09:55:42;;;;;;;;;;;;;;;0.49;100.00;100451.00;5004724;28;19918;-81
2021/12/12 09:58:19;;;;;;;;;;;;;;;0.56;100.00;100448.13;5002136;28;20005;-82
2021/12/12 10:00:49;;;;;;;;;;;;;;;0.66;100.00;100448.63;5004374;28;19917;-80
2021/12/12 10:03:26;;;;;;;;;;;;;;;0.73;100.00;100456.13;5003819;28;19921;-80
2021/12/12 10:05:56;;;;;;;;;;;;;;;0.83;100.00;100451.41;5005432;28;19917;-82
2021/12/12 10:08:30;;;;;;;;;;;;;;;0.91;99.59;100453.72;5004324;28;19953;-81
2021/12/12 10:11:05;;;;;;;;;;;;;;;1.00;99.66;100464.56;5009166;28;20347;-82
2021/12/12 10:13:30;;;;;;;;;;;;;;;1.09;99.07;100469.44;5006543;28;19957;-81
2021/12/12 10:15:57;;;;;;;;;;;;;;;1.14;97.87;100467.50;5004810;28;19926;-82
2021/12/12 10:18:37;;;;;;;;;;;;;;;1.20;98.45;100471.59;5003867;28;19932;-80
2021/12/12 10:21:09;;;;;;;;;;;;;;;1.29;97.49;100467.78;5008416;28;19927;-80
2021/12/12 10:23:42;;;;;;;;;;;;;;;1.37;97.29;100470.91;4999959;28;20012;-81
2021/12/12 10:26:17;;;;;;;;;;;;;;;1.44;97.58;100470.59;5002923;28;20435;-82
2021/12/12 10:28:46;;;;;;;;;;;;;;;1.54;96.59;100465.84;5002106;28;20057;-81
2021/12/12 10:31:34;;;;;;;;;;;;;;;1.60;96.54;100460.41;5004324;28;19917;-80
2021/12/12 10:34:11;;;;;;;;;;;;;;;1.68;95.77;100468.72;5004759;28;19971;-81
2021/12/12 10:36:36;;;;;;;;;;;;;;;1.76;95.81;100465.81;5003182;28;19921;-81
2021/12/12 10:39:08;;;;;;;;;;;;;;;1.81;95.48;100469.91;5000375;28;20223;-81
2021/12/12 10:41:39;;;;;;;;;;;;;;;1.88;94.62;100470.50;4999441;28;19922;-81
2021/12/12 10:44:11;;;;;;;;;;;;;;;1.96;94.31;100464.03;4995960;28;19979;-81
2021/12/12 10:46:36;;;;;;;;;;;;;;;2.00;94.06;100470.78;4996574;28;20036;-81
2021/12/12 10:49:04;;;;;;;;;;;;;;;2.06;93.53;100475.72;4999186;28;20365;-80
2021/12/12 10:51:34;;;;;;;;;;;;;;;2.13;93.19;100467.66;5006065;28;19979;-81
2021/12/12 10:54:03;;;;;;;;;;;;;;;2.19;92.70;100465.63;5003758;28;20347;-80
2021/12/12 10:56:39;;;;;;;;;;;;;;;2.27;92.35;100462.69;5009567;28;20301;-79
2021/12/12 10:59:24;;;;;;;;;;;;;;;2.35;91.21;100455.38;5007742;28;19918;-80
2021/12/12 11:01:59;;;;;;;;;;;;;;;2.43;91.22;100459.31;5002022;28;19913;-81
2021/12/12 11:04:30;;;;;;;;;;;;;;;2.51;91.17;100466.81;5001852;28;19917;-81
2021/12/12 11:06:58;;;;;;;;;;;;;;;2.57;90.90;100469.13;5004161;28;19925;-81
2021/12/12 11:09:38;;;;;;;;;;;;;;;2.64;90.74;100465.34;5002620;28;19928;-81
2021/12/12 11:12:36;;;;;;;;;;;;;;;2.73;90.36;100467.50;4998383;28;19922;-82
2021/12/12 11:15:04;;;;;;;;;;;;;;;2.82;89.79;100467.09;4981444;28;19917;-83
2021/12/12 11:17:32;;;;;;;;;;;;;;;2.88;89.74;100477.22;5005302;28;20293;-82
2021/12/12 11:20:04;;;;;;;;;;;;;;;2.97;90.14;100469.88;5002133;28;19918;-83
2021/12/12 11:22:35;;;;;;;;;;;;;;;3.05;90.17;100467.75;5006465;28;19943;-81
2021/12/12 11:25:07;;;;;;;;;;;;;;;3.12;90.38;100461.34;5001991;28;19941;-80
2021/12/12 11:27:35;;;;;;;;;;;;;;;3.22;90.34;100465.19;5005918;28;20267;-81
2021/12/12 11:30:05;;;;;;;;;;;;;;;3.33;90.37;100468.09;5003513;28;20366;-82
2021/12/12 11:32:34;;;;;;;;;;;;;;;3.47;89.85;100464.81;5005551;28;19925;-81
2021/12/12 11:35:01;;;;;;;;;;;;;;;3.59;88.91;100465.03;5005021;28;19964;-81
2021/12/12 11:37:37;;;;;;;;;;;;;;;3.77;88.16;100475.50;5002319;28;20717;-82
2021/12/12 11:40:06;;;;;;;;;;;;;;;3.97;87.54;100464.88;5003546;28;20297;-82
2021/12/12 11:42:41;;;;;;;;;;;;;;;4.17;87.16;100462.09;5005157;28;19924;-82
2021/12/12 11:45:07;;;;;;;;;;;;;;;4.38;85.63;100460.94;4997912;28;20433;-81
2021/12/12 11:47:35;;;;;;;;;;;;;;;4.59;85.42;100463.34;5005262;28;19999;-81
2021/12/12 11:50:06;;;;;;;;;;;;;;;4.78;84.20;100466.63;5000570;28;19925;-81
2021/12/12 11:52:51;;;;;;;;;;;;;;;4.95;81.72;100456.06;4992813;28;19921;-81
2021/12/12 11:55:24;;;;;;;;;;;;;;;5.12;81.56;100455.16;5007079;28;19925;-82
2021/12/12 11:57:58;;;;;;;;;;;;;;;5.29;81.09;100453.25;5011472;28;19918;-80
2021/12/12 12:00:28;;;;;;;;;;;;;;;5.41;77.97;100448.25;5010426;28;19921;-82
2021/12/12 12:03:21;;;;;;;;;;;;;;;5.51;78.42;100444.16;5000977;28;20016;-83
2021/12/12 12:06:05;;;;;;;;;;;;;;;5.63;78.89;100444.28;5005205;28;19936;-81
2021/12/12 12:08:39;;;;;;;;;;;;;;;5.73;77.61;100440.19;5004356;28;19917;-81
2021/12/12 12:11:17;;;;;;;;;;;;;;;5.86;77.89;100435.06;4993172;28;19917;-82
2021/12/12 12:13:56;;;;;;;;;;;;;;;6.00;77.37;100443.00;4999289;28;19956;-80
2021/12/12 12:16:28;;;;;;;;;;;;;;;6.12;76.82;100444.88;5001007;28;19928;-81
2021/12/12 12:19:23;;;;;;;;;;;;;;;6.22;75.80;100425.97;5003248;28;19917;-82
2021/12/12 12:22:01;;;;;;;;;;;;;;;6.27;74.68;100429.97;4997566;28;19918;-82
2021/12/12 12:24:55;;;;;;;;;;;;;;;6.39;74.38;100438.88;5001580;28;20026;-82
2021/12/12 12:27:31;;;;;;;;;;;;;;;6.52;74.19;100435.41;5002623;28;19925;-82
2021/12/12 12:30:08;;;;;;;;;;;;;;;6.64;73.24;100433.78;5001249;28;19914;-81
2021/12/12 12:32:37;;;;;;;;;;;;;;;6.78;73.42;100425.88;4997165;28;19925;-81
2021/12/12 12:35:25;;;;;;;;;;;;;;;6.86;72.42;100423.63;4996586;28;19921;-81
2021/12/12 12:38:09;;;;;;;;;;;;;;;6.97;71.78;100431.63;4992081;28;20309;-82
2021/12/12 12:40:36;;;;;;;;;;;;;;;7.07;71.11;100431.06;5000249;28;20278;-83
2021/12/12 12:43:20;;;;;;;;;;;;;;;7.16;70.38;100433.91;5003508;28;19913;-83
2021/12/12 12:46:06;;;;;;;;;;;;;;;7.25;69.77;100427.22;4999882;28;19921;-83
2021/12/12 12:48:49;;;;;;;;;;;;;;;7.34;68.74;100424.84;4998247;28;19956;-83
2021/12/12 12:51:15;;;;;;;;;;;;;;;7.38;68.26;100420.22;5002340;28;19917;-82
2021/12/12 12:53:46;;;;;;;;;;;;;;;7.48;67.67;100426.53;5002274;28;20029;-82
2021/12/12 12:56:24;;;;;;;;;;;;;;;7.56;67.80;100420.78;5000580;28;20448;-82
2021/12/12 12:58:49;;;;;;;;;;;;;;;7.63;68.11;100419.44;5002867;28;19980;-82
2021/12/12 13:01:25;;;;;;;;;;;;;;;7.65;67.44;100413.13;5002066;28;20185;-83
2021/12/12 13:04:09;;;;;;;;;;;;;;;7.77;68.46;100407.06;5000829;28;19980;-83
2021/12/12 13:06:43;;;;;;;;;;;;;;;7.91;67.85;100407.88;5003067;28;20399;-83